createdAt,value
2019-02-20T00:01:12.491Z,6.16
2019-02-20T00:06:18.088Z,6.24
2019-02-20T00:11:24.125Z,6.31
2019-02-20T00:16:32.187Z,6.47
2019-02-20T00:21:39.529Z,6.39
2019-02-20T00:26:46.163Z,6.62
2019-02-20T00:31:54.121Z,6.24
2019-02-20T00:37:08.219Z,6.26
2019-02-20T00:42:14.039Z,6.24
2019-02-20T00:47:35.628Z,6.34
2019-02-20T00:52:51.851Z,6.34
2019-02-20T00:58:00.097Z,6.11
2019-02-20T01:03:06.364Z,6.06
2019-02-20T01:08:15.277Z,6.13
2019-02-20T01:13:20.930Z,5.89
2019-02-20T01:18:26.987Z,5.96
2019-02-20T01:23:36.778Z,5.74
2019-02-20T01:28:45.235Z,5.99
2019-02-20T01:33:51.972Z,5.82
2019-02-20T01:39:04.445Z,5.77
2019-02-20T01:44:13.554Z,5.68
2019-02-20T01:49:24.516Z,5.55
2019-02-20T01:54:38.809Z,5.38
2019-02-20T01:59:52.377Z,5.39
2019-02-20T02:04:57.783Z,5.42
2019-02-20T02:10:03.819Z,5.33
2019-02-20T02:15:20.019Z,5.25
2019-02-20T02:20:20.361Z,5.16
2019-02-20T02:25:26.367Z,5.30
2019-02-20T02:30:32.130Z,5.13
2019-02-20T02:35:37.725Z,5.13
2019-02-20T02:40:47.046Z,5.23
2019-02-20T02:45:59.402Z,5.28
2019-02-20T02:51:03.639Z,5.26
2019-02-20T02:56:09.373Z,5.10
2019-02-20T03:01:15.005Z,5.01
2019-02-20T03:06:22.950Z,5.11
2019-02-20T03:11:28.576Z,5.05
2019-02-20T03:16:39.848Z,5.02
2019-02-20T03:21:51.910Z,5.03
2019-02-20T03:26:58.023Z,4.78
2019-02-20T03:32:06.179Z,5.13
2019-02-20T03:37:13.569Z,4.99
2019-02-20T03:42:21.531Z,4.91
2019-02-20T03:47:32.221Z,4.83
2019-02-20T03:52:37.905Z,4.87
2019-02-20T03:57:46.681Z,4.88
2019-02-20T04:02:55.117Z,4.78
2019-02-20T04:08:05.496Z,4.77
2019-02-20T04:13:14.030Z,4.77
2019-02-20T04:18:20.318Z,4.87
2019-02-20T04:23:27.849Z,4.54
2019-02-20T04:28:36.525Z,4.71
2019-02-20T04:33:44.022Z,4.55
2019-02-20T04:38:51.594Z,4.55
2019-02-20T04:43:57.267Z,4.63
2019-02-20T04:49:05.672Z,4.56
2019-02-20T04:54:13.631Z,4.49
2019-02-20T04:59:18.612Z,4.50
2019-02-20T05:04:25.868Z,4.56
2019-02-20T05:09:31.826Z,4.56
2019-02-20T05:14:37.396Z,4.68
2019-02-20T05:19:43.060Z,4.50
2019-02-20T05:24:50.741Z,4.50
2019-02-20T05:29:56.375Z,4.59
2019-02-20T05:35:08.609Z,4.69
2019-02-20T05:40:14.342Z,4.73
2019-02-20T05:45:20.176Z,4.87
2019-02-20T05:50:25.839Z,4.87
2019-02-20T05:55:40.467Z,4.96
2019-02-20T06:00:46.047Z,4.93
2019-02-20T06:05:51.616Z,4.93
2019-02-20T06:10:58.437Z,5.00
2019-02-20T06:16:07.639Z,4.96
2019-02-20T06:21:16.382Z,5.17
2019-02-20T06:26:23.369Z,5.12
2019-02-20T06:31:30.320Z,5.20
2019-02-20T06:36:37.939Z,5.24
2019-02-20T06:41:47.707Z,5.26
2019-02-20T06:46:53.394Z,5.30
2019-02-20T06:51:59.482Z,5.55
2019-02-20T06:57:09.238Z,5.55
2019-02-20T07:02:15.107Z,5.63
2019-02-20T07:07:57.732Z,5.64
2019-02-20T07:13:37.704Z,5.80
2019-02-20T07:19:23.424Z,5.90
2019-02-20T07:25:03.943Z,5.98
2019-02-20T07:30:15.002Z,5.98
2019-02-20T07:35:21.967Z,6.07
2019-02-20T07:40:28.600Z,6.23
2019-02-20T07:45:36.240Z,6.02
2019-02-20T07:50:42.379Z,6.17
2019-02-20T07:55:49.299Z,6.46
2019-02-20T08:00:54.968Z,6.50
2019-02-20T08:06:01.029Z,6.33
2019-02-20T08:11:11.449Z,6.48
2019-02-20T08:16:20.689Z,6.31
2019-02-20T08:21:27.812Z,6.58
2019-02-20T08:26:35.959Z,6.80
2019-02-20T08:31:44.369Z,6.73
2019-02-20T08:36:59.742Z,6.73
2019-02-20T08:42:11.135Z,6.96
2019-02-20T08:47:16.752Z,6.91
2019-02-20T08:52:23.376Z,7.12
2019-02-20T08:57:29.043Z,7.19
2019-02-20T09:02:35.066Z,7.32
2019-02-20T09:07:40.794Z,7.27
2019-02-20T09:12:47.926Z,7.39
2019-02-20T09:17:55.426Z,7.60
2019-02-20T09:23:00.999Z,7.34
2019-02-20T09:28:07.447Z,7.30
2019-02-20T09:33:16.442Z,7.58
2019-02-20T09:38:22.022Z,7.61
2019-02-20T09:43:33.756Z,7.78
2019-02-20T09:48:39.400Z,7.91
2019-02-20T09:53:51.326Z,8.21
2019-02-20T09:58:58.941Z,8.07
2019-02-20T10:04:06.178Z,8.36
2019-02-20T10:09:14.241Z,8.48
2019-02-20T10:14:20.105Z,8.78
2019-02-20T10:19:25.818Z,8.98
2019-02-20T10:24:34.504Z,9.04
2019-02-20T10:29:41.765Z,9.10
2019-02-20T10:34:49.101Z,9.08
2019-02-20T10:39:57.042Z,9.24
2019-02-20T10:45:09.244Z,9.45
2019-02-20T10:50:18.719Z,9.45
2019-02-20T10:55:24.386Z,9.59
2019-02-20T11:00:31.931Z,9.74
2019-02-20T11:05:37.631Z,9.80
2019-02-20T11:10:44.454Z,10.26
2019-02-20T11:15:53.728Z,10.17
2019-02-20T11:21:01.174Z,10.10
2019-02-20T11:26:17.856Z,10.12
2019-02-20T11:31:25.047Z,10.06
2019-02-20T11:36:30.723Z,10.08
2019-02-20T11:41:36.428Z,10.17
2019-02-20T11:51:53.213Z,10.17
2019-02-20T11:56:58.958Z,10.31
2019-02-20T12:02:07.709Z,10.35
2019-02-20T12:07:17.666Z,9.88
2019-02-20T12:12:27.329Z,10.12
2019-02-20T12:17:38.622Z,9.95
2019-02-20T12:22:45.983Z,10.32
2019-02-20T12:27:51.598Z,10.45
2019-02-20T12:32:59.706Z,10.26
2019-02-20T12:38:08.766Z,10.24
2019-02-20T12:43:17.611Z,10.37
2019-02-20T12:48:23.434Z,10.66
2019-02-20T12:53:36.106Z,10.49
2019-02-20T12:58:51.224Z,10.50
2019-02-20T13:03:56.396Z,10.58
2019-02-20T13:14:10.585Z,10.51
2019-02-20T13:19:18.942Z,10.58
2019-02-20T13:24:24.856Z,10.29
2019-02-20T13:29:31.472Z,10.15
2019-02-20T13:34:37.677Z,9.87
2019-02-20T13:39:52.138Z,10.04
2019-02-20T13:44:57.660Z,9.87
2019-02-20T13:50:03.547Z,10.01
2019-02-20T13:55:14.239Z,9.75
2019-02-20T14:00:23.285Z,9.87
2019-02-20T14:05:29.117Z,10.15
2019-02-20T14:10:38.063Z,9.89
2019-02-20T14:15:45.597Z,10.13
2019-02-20T14:20:54.331Z,10.21
2019-02-20T14:26:00.069Z,10.10
2019-02-20T14:31:11.997Z,10.40
2019-02-20T14:36:19.851Z,9.91
2019-02-20T14:41:30.433Z,10.59
2019-02-20T14:46:37.019Z,10.77
2019-02-20T14:51:42.768Z,10.41
2019-02-20T14:56:50.769Z,10.18
2019-02-20T15:01:56.484Z,9.64
2019-02-20T15:07:09.653Z,9.74
2019-02-20T15:12:21.084Z,9.69
2019-02-20T15:17:32.788Z,9.62
2019-02-20T15:22:39.892Z,9.74
2019-02-20T15:27:48.932Z,9.71
2019-02-20T15:32:54.724Z,9.60
2019-02-20T15:38:02.929Z,9.56
2019-02-20T15:43:12.214Z,9.83
2019-02-20T15:48:23.634Z,9.37
2019-02-20T15:53:29.374Z,9.35
2019-02-20T15:58:35.579Z,9.16
2019-02-20T16:03:43.541Z,9.14
2019-02-20T16:08:52.459Z,9.12
2019-02-20T16:13:58.192Z,9.07
2019-02-20T16:19:11.337Z,8.91
2019-02-20T16:24:26.035Z,9.00
2019-02-20T16:29:31.760Z,8.67
2019-02-20T16:34:38.025Z,8.86
2019-02-20T16:39:52.902Z,8.69
2019-02-20T16:45:00.608Z,8.45
2019-02-20T16:50:07.032Z,8.31
2019-02-20T16:55:19.143Z,8.32
2019-02-20T17:00:29.883Z,8.30
2019-02-20T17:05:40.261Z,8.25
2019-02-20T17:10:46.019Z,8.29
2019-02-20T17:15:58.884Z,8.07
2019-02-20T17:21:05.245Z,8.19
2019-02-20T17:26:11.590Z,8.11
2019-02-20T17:31:23.903Z,7.99
2019-02-20T17:36:29.823Z,8.03
2019-02-20T17:41:41.140Z,7.65
2019-02-20T17:46:46.871Z,7.95
2019-02-20T17:51:54.250Z,7.91
2019-02-20T17:57:01.286Z,7.86
2019-02-20T18:02:10.186Z,7.79
2019-02-20T18:07:17.237Z,7.86
2019-02-20T18:12:25.323Z,7.82
2019-02-20T18:17:31.443Z,7.62
2019-02-20T18:22:47.734Z,7.70
2019-02-20T18:27:55.342Z,7.73
2019-02-20T18:33:04.782Z,7.51
2019-02-20T18:38:11.599Z,7.70
2019-02-20T18:43:21.068Z,7.38
2019-02-20T18:48:27.920Z,7.41
2019-02-20T18:53:38.320Z,7.62
2019-02-20T18:58:45.089Z,7.53
2019-02-20T19:03:56.714Z,7.36
2019-02-20T19:09:23.713Z,7.40
2019-02-20T19:14:47.423Z,7.15
2019-02-20T19:20:06.775Z,6.99
2019-02-20T19:25:48.416Z,6.81
2019-02-20T19:31:49.213Z,7.14
2019-02-20T19:37:38.052Z,7.07
2019-02-20T19:43:29.859Z,7.28
2019-02-20T19:49:18.306Z,7.22
2019-02-20T19:54:48.861Z,7.23
2019-02-20T20:00:49.478Z,7.41
2019-02-20T20:06:33.210Z,7.23
2019-02-20T20:12:22.222Z,7.38
2019-02-20T20:18:13.159Z,6.95
2019-02-20T20:24:11.041Z,7.30
2019-02-20T20:30:09.045Z,7.25
2019-02-20T20:36:03.205Z,7.49
2019-02-20T20:41:25.685Z,7.24
2019-02-20T20:47:09.447Z,7.09
2019-02-20T20:52:59.208Z,7.15
2019-02-20T20:58:39.990Z,7.01
2019-02-20T21:04:37.104Z,7.23
2019-02-20T21:10:10.187Z,6.93
2019-02-20T21:16:21.569Z,6.91
2019-02-20T21:22:05.121Z,7.19
2019-02-20T21:27:51.226Z,6.89
2019-02-20T21:33:52.928Z,6.98
2019-02-20T21:39:30.399Z,6.82
2019-02-20T21:45:35.260Z,6.63
2019-02-20T21:51:06.275Z,6.76
2019-02-20T21:56:52.608Z,6.58
2019-02-20T22:02:36.076Z,6.85
2019-02-20T22:08:20.701Z,6.67
2019-02-20T22:14:02.614Z,6.50
2019-02-20T22:19:31.988Z,6.64
2019-02-20T22:25:00.276Z,7.16
2019-02-20T22:30:50.725Z,6.94
2019-02-20T22:36:40.450Z,6.86
2019-02-20T22:42:14.860Z,7.14
2019-02-20T22:47:53.886Z,6.89
2019-02-20T22:53:45.994Z,6.98
2019-02-20T22:59:36.417Z,6.90
2019-02-20T23:05:21.449Z,7.02
2019-02-20T23:11:10.691Z,6.95
2019-02-20T23:16:16.680Z,6.53
2019-02-20T23:21:22.296Z,6.38
2019-02-20T23:26:33.293Z,6.60
2019-02-20T23:31:39.507Z,6.45
2019-02-20T23:36:45.570Z,6.18
2019-02-20T23:41:53.136Z,6.59
2019-02-20T23:52:56.019Z,6.51
2019-02-20T23:58:10.862Z,6.58
